sensor_id;sensor_type;location;lat;lon;timestamp;pressure;altitude;pressure_sealevel;temperature;humidity
62057;BME280;48016;50.284;18.860;2023-07-22T00:02:25;97635.06;;;17.02;82.60
62057;BME280;48016;50.284;18.860;2023-07-22T00:04:51;97631.56;;;17.00;82.68
62057;BME280;48016;50.284;18.860;2023-07-22T00:07:18;97630.67;;;16.98;82.68
62057;BME280;48016;50.284;18.860;2023-07-22T00:09:45;97637.58;;;16.97;82.79
62057;BME280;48016;50.284;18.860;2023-07-22T00:12:11;97635.56;;;16.95;82.67
62057;BME280;48016;50.284;18.860;2023-07-22T00:14:40;97639.61;;;16.93;82.86
62057;BME280;48016;50.284;18.860;2023-07-22T00:17:07;97641.98;;;16.92;83.34
62057;BME280;48016;50.284;18.860;2023-07-22T00:19:34;97642.52;;;16.92;83.17
62057;BME280;48016;50.284;18.860;2023-07-22T00:22:01;97642.52;;;16.90;83.41
62057;BME280;48016;50.284;18.860;2023-07-22T00:24:27;97643.02;;;16.90;83.64
62057;BME280;48016;50.284;18.860;2023-07-22T00:26:55;97640.20;;;16.89;83.72
62057;BME280;48016;50.284;18.860;2023-07-22T00:29:21;97633.86;;;16.87;84.29
62057;BME280;48016;50.284;18.860;2023-07-22T00:31:48;97628.89;;;16.89;84.06
62057;BME280;48016;50.284;18.860;2023-07-22T00:34:15;97633.84;;;16.90;84.07
62057;BME280;48016;50.284;18.860;2023-07-22T00:36:42;97641.39;;;16.91;84.38
62057;BME280;48016;50.284;18.860;2023-07-22T00:39:10;97629.33;;;16.93;84.27
62057;BME280;48016;50.284;18.860;2023-07-22T00:41:40;97620.56;;;16.94;84.32
62057;BME280;48016;50.284;18.860;2023-07-22T00:44:09;97621.46;;;16.95;84.34
62057;BME280;48016;50.284;18.860;2023-07-22T00:46:35;97618.66;;;16.94;84.01
62057;BME280;48016;50.284;18.860;2023-07-22T00:49:02;97619.16;;;16.91;84.15
62057;BME280;48016;50.284;18.860;2023-07-22T00:51:28;97619.17;;;16.89;84.06
62057;BME280;48016;50.284;18.860;2023-07-22T00:53:55;97629.09;;;16.90;84.01
62057;BME280;48016;50.284;18.860;2023-07-22T00:56:22;97634.15;;;16.88;84.15
62057;BME280;48016;50.284;18.860;2023-07-22T00:58:49;97633.18;;;16.88;84.02
62057;BME280;48016;50.284;18.860;2023-07-22T01:01:15;97633.68;;;16.85;84.27
62057;BME280;48016;50.284;18.860;2023-07-22T01:03:42;97639.83;;;16.82;84.35
62057;BME280;48016;50.284;18.860;2023-07-22T01:06:10;97643.41;;;16.80;84.24
62057;BME280;48016;50.284;18.860;2023-07-22T01:08:37;97642.02;;;16.78;84.21
62057;BME280;48016;50.284;18.860;2023-07-22T01:11:04;97640.85;;;16.75;84.36
62057;BME280;48016;50.284;18.860;2023-07-22T01:13:30;97633.70;;;16.74;84.39
62057;BME280;48016;50.284;18.860;2023-07-22T01:15:57;97632.31;;;16.71;84.20
62057;BME280;48016;50.284;18.860;2023-07-22T01:18:24;97631.09;;;16.67;84.18
62057;BME280;48016;50.284;18.860;2023-07-22T01:20:50;97623.09;;;16.65;84.24
62057;BME280;48016;50.284;18.860;2023-07-22T01:23:17;97617.02;;;16.62;84.11
62057;BME280;48016;50.284;18.860;2023-07-22T01:25:44;97614.05;;;16.59;84.32
62057;BME280;48016;50.284;18.860;2023-07-22T01:28:11;97612.66;;;16.58;84.24
62057;BME280;48016;50.284;18.860;2023-07-22T01:30:37;97621.01;;;16.56;84.13
62057;BME280;48016;50.284;18.860;2023-07-22T01:33:04;97618.56;;;16.56;84.27
62057;BME280;48016;50.284;18.860;2023-07-22T01:35:30;97617.24;;;16.56;84.24
62057;BME280;48016;50.284;18.860;2023-07-22T01:37:57;97629.13;;;16.56;84.29
62057;BME280;48016;50.284;18.860;2023-07-22T01:40:24;97633.09;;;16.58;84.51
62057;BME280;48016;50.284;18.860;2023-07-22T01:42:51;97633.22;;;16.56;84.45
62057;BME280;48016;50.284;18.860;2023-07-22T01:45:18;97630.14;;;16.55;84.35
62057;BME280;48016;50.284;18.860;2023-07-22T01:47:44;97628.70;;;16.54;84.50
62057;BME280;48016;50.284;18.860;2023-07-22T01:50:11;97626.50;;;16.52;84.32
62057;BME280;48016;50.284;18.860;2023-07-22T01:52:37;97624.15;;;16.52;84.44
62057;BME280;48016;50.284;18.860;2023-07-22T01:55:04;97618.73;;;16.53;84.52
62057;BME280;48016;50.284;18.860;2023-07-22T01:57:32;97612.02;;;16.53;84.52
62057;BME280;48016;50.284;18.860;2023-07-22T01:59:59;97611.23;;;16.54;84.72
62057;BME280;48016;50.284;18.860;2023-07-22T02:02:26;97615.09;;;16.55;84.74
62057;BME280;48016;50.284;18.860;2023-07-22T02:04:52;97619.48;;;16.56;84.77
62057;BME280;48016;50.284;18.860;2023-07-22T02:07:19;97616.54;;;16.56;84.90
62057;BME280;48016;50.284;18.860;2023-07-22T02:09:46;97622.73;;;16.57;84.89
62057;BME280;48016;50.284;18.860;2023-07-22T02:12:12;97629.55;;;16.57;84.72
62057;BME280;48016;50.284;18.860;2023-07-22T02:14:39;97640.27;;;16.58;84.87
62057;BME280;48016;50.284;18.860;2023-07-22T02:17:06;97644.97;;;16.58;85.11
62057;BME280;48016;50.284;18.860;2023-07-22T02:19:35;97645.39;;;16.59;85.00
62057;BME280;48016;50.284;18.860;2023-07-22T02:22:04;97643.17;;;16.58;85.13
62057;BME280;48016;50.284;18.860;2023-07-22T02:24:31;97643.88;;;16.55;85.07
62057;BME280;48016;50.284;18.860;2023-07-22T02:26:58;97649.10;;;16.54;85.14
62057;BME280;48016;50.284;18.860;2023-07-22T02:29:24;97651.48;;;16.53;85.11
62057;BME280;48016;50.284;18.860;2023-07-22T02:31:51;97655.70;;;16.52;85.15
62057;BME280;48016;50.284;18.860;2023-07-22T02:34:17;97655.19;;;16.51;85.33
62057;BME280;48016;50.284;18.860;2023-07-22T02:36:44;97656.14;;;16.51;85.29
62057;BME280;48016;50.284;18.860;2023-07-22T02:39:10;97657.84;;;16.52;85.60
62057;BME280;48016;50.284;18.860;2023-07-22T02:41:37;97660.08;;;16.54;85.40
62057;BME280;48016;50.284;18.860;2023-07-22T02:44:03;97661.66;;;16.54;85.35
62057;BME280;48016;50.284;18.860;2023-07-22T02:46:30;97665.35;;;16.55;85.55
62057;BME280;48016;50.284;18.860;2023-07-22T02:48:58;97665.42;;;16.54;85.48
62057;BME280;48016;50.284;18.860;2023-07-22T02:51:25;97670.20;;;16.55;85.50
62057;BME280;48016;50.284;18.860;2023-07-22T02:53:51;97673.44;;;16.54;85.68
62057;BME280;48016;50.284;18.860;2023-07-22T02:56:18;97675.91;;;16.51;85.46
62057;BME280;48016;50.284;18.860;2023-07-22T02:58:45;97682.63;;;16.49;85.53
62057;BME280;48016;50.284;18.860;2023-07-22T03:01:12;97689.48;;;16.49;85.65
62057;BME280;48016;50.284;18.860;2023-07-22T03:03:38;97697.57;;;16.49;85.51
62057;BME280;48016;50.284;18.860;2023-07-22T03:06:06;97701.89;;;16.48;85.55
62057;BME280;48016;50.284;18.860;2023-07-22T03:08:34;97702.20;;;16.49;85.64
62057;BME280;48016;50.284;18.860;2023-07-22T03:11:01;97700.52;;;16.49;85.55
62057;BME280;48016;50.284;18.860;2023-07-22T03:13:27;97704.70;;;16.48;85.76
62057;BME280;48016;50.284;18.860;2023-07-22T03:15:56;97701.64;;;16.45;85.57
62057;BME280;48016;50.284;18.860;2023-07-22T03:18:23;97710.49;;;16.43;85.83
62057;BME280;48016;50.284;18.860;2023-07-22T03:20:49;97716.93;;;16.42;85.90
62057;BME280;48016;50.284;18.860;2023-07-22T03:23:16;97719.56;;;16.42;85.86
62057;BME280;48016;50.284;18.860;2023-07-22T03:25:42;97717.21;;;16.42;86.08
62057;BME280;48016;50.284;18.860;2023-07-22T03:28:09;97716.83;;;16.42;86.26
62057;BME280;48016;50.284;18.860;2023-07-22T03:30:35;97719.16;;;16.43;86.37
62057;BME280;48016;50.284;18.860;2023-07-22T03:33:02;97719.80;;;16.43;86.22
62057;BME280;48016;50.284;18.860;2023-07-22T03:35:29;97718.70;;;16.43;86.39
62057;BME280;48016;50.284;18.860;2023-07-22T03:37:56;97724.08;;;16.45;86.37
62057;BME280;48016;50.284;18.860;2023-07-22T03:40:22;97733.05;;;16.46;86.31
62057;BME280;48016;50.284;18.860;2023-07-22T03:42:55;97737.98;;;16.48;86.23
62057;BME280;48016;50.284;18.860;2023-07-22T03:45:22;97747.61;;;16.49;86.12
62057;BME280;48016;50.284;18.860;2023-07-22T03:47:56;97754.63;;;16.47;86.18
62057;BME280;48016;50.284;18.860;2023-07-22T03:50:24;97752.60;;;16.47;86.18
62057;BME280;48016;50.284;18.860;2023-07-22T03:52:50;97756.19;;;16.49;86.49
62057;BME280;48016;50.284;18.860;2023-07-22T03:55:17;97758.38;;;16.50;86.21
62057;BME280;48016;50.284;18.860;2023-07-22T03:57:45;97755.27;;;16.50;86.33
62057;BME280;48016;50.284;18.860;2023-07-22T04:00:12;97763.33;;;16.49;86.38
62057;BME280;48016;50.284;18.860;2023-07-22T04:02:39;97763.09;;;16.50;86.28
62057;BME280;48016;50.284;18.860;2023-07-22T04:05:06;97757.23;;;16.48;86.27
62057;BME280;48016;50.284;18.860;2023-07-22T04:07:32;97761.08;;;16.50;86.42
62057;BME280;48016;50.284;18.860;2023-07-22T04:09:59;97763.76;;;16.52;86.47
62057;BME280;48016;50.284;18.860;2023-07-22T04:12:26;97765.66;;;16.54;86.34
62057;BME280;48016;50.284;18.860;2023-07-22T04:14:52;97762.31;;;16.55;86.25
62057;BME280;48016;50.284;18.860;2023-07-22T04:17:19;97763.73;;;16.58;86.07
62057;BME280;48016;50.284;18.860;2023-07-22T04:19:45;97772.30;;;16.60;86.19
62057;BME280;48016;50.284;18.860;2023-07-22T04:22:12;97781.45;;;16.63;86.08
62057;BME280;48016;50.284;18.860;2023-07-22T04:24:39;97783.41;;;16.63;86.00
62057;BME280;48016;50.284;18.860;2023-07-22T04:27:06;97787.25;;;16.62;86.00
62057;BME280;48016;50.284;18.860;2023-07-22T04:29:32;97787.99;;;16.63;86.05
62057;BME280;48016;50.284;18.860;2023-07-22T04:31:59;97793.15;;;16.65;85.93
62057;BME280;48016;50.284;18.860;2023-07-22T04:34:30;97798.33;;;16.65;85.71
62057;BME280;48016;50.284;18.860;2023-07-22T04:36:58;97803.79;;;16.65;85.78
62057;BME280;48016;50.284;18.860;2023-07-22T04:39:24;97808.27;;;16.66;85.78
62057;BME280;48016;50.284;18.860;2023-07-22T04:41:51;97809.13;;;16.68;85.57
62057;BME280;48016;50.284;18.860;2023-07-22T04:44:19;97813.10;;;16.69;85.38
62057;BME280;48016;50.284;18.860;2023-07-22T04:46:45;97815.33;;;16.69;85.37
62057;BME280;48016;50.284;18.860;2023-07-22T04:49:12;97816.62;;;16.70;85.11
62057;BME280;48016;50.284;18.860;2023-07-22T04:51:39;97819.71;;;16.73;85.08
62057;BME280;48016;50.284;18.860;2023-07-22T04:54:06;97820.28;;;16.79;84.91
62057;BME280;48016;50.284;18.860;2023-07-22T04:56:32;97821.02;;;16.85;84.55
62057;BME280;48016;50.284;18.860;2023-07-22T04:58:59;97826.25;;;16.88;84.19
62057;BME280;48016;50.284;18.860;2023-07-22T05:01:26;97827.75;;;16.94;83.87
62057;BME280;48016;50.284;18.860;2023-07-22T05:03:52;97830.04;;;17.02;83.51
62057;BME280;48016;50.284;18.860;2023-07-22T05:06:21;97837.12;;;17.07;83.34
62057;BME280;48016;50.284;18.860;2023-07-22T05:08:48;97839.05;;;17.11;82.81
62057;BME280;48016;50.284;18.860;2023-07-22T05:11:14;97839.36;;;17.11;82.36
62057;BME280;48016;50.284;18.860;2023-07-22T05:13:41;97840.95;;;17.09;82.25
62057;BME280;48016;50.284;18.860;2023-07-22T05:16:08;97836.07;;;17.12;82.28
62057;BME280;48016;50.284;18.860;2023-07-22T05:18:34;97838.66;;;17.19;81.82
62057;BME280;48016;50.284;18.860;2023-07-22T05:21:01;97842.23;;;17.20;81.37
62057;BME280;48016;50.284;18.860;2023-07-22T05:23:28;97840.25;;;17.30;81.29
62057;BME280;48016;50.284;18.860;2023-07-22T05:25:54;97839.21;;;17.41;80.91
62057;BME280;48016;50.284;18.860;2023-07-22T05:28:21;97849.08;;;17.73;80.34
62057;BME280;48016;50.284;18.860;2023-07-22T05:30:47;97847.93;;;18.23;79.57
62057;BME280;48016;50.284;18.860;2023-07-22T05:33:14;97853.55;;;18.75;78.81
62057;BME280;48016;50.284;18.860;2023-07-22T05:35:41;97853.50;;;19.22;77.13
62057;BME280;48016;50.284;18.860;2023-07-22T05:38:07;97855.62;;;19.64;75.90
62057;BME280;48016;50.284;18.860;2023-07-22T05:40:34;97858.25;;;20.05;74.64
62057;BME280;48016;50.284;18.860;2023-07-22T05:43:01;97857.92;;;20.44;73.75
62057;BME280;48016;50.284;18.860;2023-07-22T05:45:28;97862.39;;;20.77;71.50
62057;BME280;48016;50.284;18.860;2023-07-22T05:47:54;97870.77;;;21.11;71.22
62057;BME280;48016;50.284;18.860;2023-07-22T05:50:21;97871.95;;;21.27;69.73
62057;BME280;48016;50.284;18.860;2023-07-22T05:52:47;97877.49;;;21.14;68.98
62057;BME280;48016;50.284;18.860;2023-07-22T05:55:14;97875.30;;;21.28;68.55
62057;BME280;48016;50.284;18.860;2023-07-22T05:57:41;97878.34;;;21.57;68.07
62057;BME280;48016;50.284;18.860;2023-07-22T06:00:08;97879.27;;;21.85;66.43
62057;BME280;48016;50.284;18.860;2023-07-22T06:02:35;97881.20;;;22.20;65.66
62057;BME280;48016;50.284;18.860;2023-07-22T06:05:02;97878.58;;;22.42;64.53
62057;BME280;48016;50.284;18.860;2023-07-22T06:07:28;97880.05;;;22.69;64.04
62057;BME280;48016;50.284;18.860;2023-07-22T06:09:55;97887.20;;;22.92;64.40
62057;BME280;48016;50.284;18.860;2023-07-22T06:12:21;97883.17;;;23.13;62.68
62057;BME280;48016;50.284;18.860;2023-07-22T06:14:48;97882.54;;;23.25;61.75
62057;BME280;48016;50.284;18.860;2023-07-22T06:17:14;97885.43;;;23.38;60.57
62057;BME280;48016;50.284;18.860;2023-07-22T06:19:41;97882.98;;;23.47;59.65
62057;BME280;48016;50.284;18.860;2023-07-22T06:22:07;97884.27;;;23.58;59.84
62057;BME280;48016;50.284;18.860;2023-07-22T06:24:34;97888.70;;;23.77;60.09
62057;BME280;48016;50.284;18.860;2023-07-22T06:27:01;97884.86;;;23.87;59.06
62057;BME280;48016;50.284;18.860;2023-07-22T06:29:27;97891.83;;;23.97;57.55
62057;BME280;48016;50.284;18.860;2023-07-22T06:31:54;97893.11;;;24.09;57.10
62057;BME280;48016;50.284;18.860;2023-07-22T06:34:20;97897.13;;;24.33;57.08
62057;BME280;48016;50.284;18.860;2023-07-22T06:36:47;97900.24;;;24.52;56.03
62057;BME280;48016;50.284;18.860;2023-07-22T06:39:14;97898.13;;;24.75;55.86
62057;BME280;48016;50.284;18.860;2023-07-22T06:41:40;97896.56;;;24.89;54.17
62057;BME280;48016;50.284;18.860;2023-07-22T06:44:07;97893.85;;;24.85;53.74
62057;BME280;48016;50.284;18.860;2023-07-22T06:46:33;97891.64;;;24.68;53.72
62057;BME280;48016;50.284;18.860;2023-07-22T06:49:00;97890.75;;;24.61;53.35
62057;BME280;48016;50.284;18.860;2023-07-22T06:51:27;97889.86;;;24.63;52.56
62057;BME280;48016;50.284;18.860;2023-07-22T06:53:53;97894.50;;;24.66;52.61
62057;BME280;48016;50.284;18.860;2023-07-22T06:56:20;97900.79;;;24.74;52.09
62057;BME280;48016;50.284;18.860;2023-07-22T06:58:46;97902.23;;;24.78;51.65
62057;BME280;48016;50.284;18.860;2023-07-22T07:01:13;97905.62;;;24.74;51.37
62057;BME280;48016;50.284;18.860;2023-07-22T07:03:40;97907.91;;;24.85;51.29
62057;BME280;48016;50.284;18.860;2023-07-22T07:06:06;97908.65;;;24.96;51.10
62057;BME280;48016;50.284;18.860;2023-07-22T07:08:33;97914.91;;;25.17;50.84
62057;BME280;48016;50.284;18.860;2023-07-22T07:11:00;97911.45;;;25.35;49.84
62057;BME280;48016;50.284;18.860;2023-07-22T07:13:27;97907.65;;;25.50;49.90
62057;BME280;48016;50.284;18.860;2023-07-22T07:15:54;97908.63;;;25.55;48.88
62057;BME280;48016;50.284;18.860;2023-07-22T07:18:21;97907.20;;;25.61;48.53
62057;BME280;48016;50.284;18.860;2023-07-22T07:20:47;97909.60;;;25.75;48.25
62057;BME280;48016;50.284;18.860;2023-07-22T07:23:16;97910.65;;;25.83;48.52
62057;BME280;48016;50.284;18.860;2023-07-22T07:25:43;97911.80;;;25.97;48.03
62057;BME280;48016;50.284;18.860;2023-07-22T07:28:09;97917.58;;;26.05;47.09
62057;BME280;48016;50.284;18.860;2023-07-22T07:30:37;97918.55;;;26.07;46.42
62057;BME280;48016;50.284;18.860;2023-07-22T07:33:04;97916.78;;;26.09;46.71
62057;BME280;48016;50.284;18.860;2023-07-22T07:35:31;97916.52;;;26.04;46.49
62057;BME280;48016;50.284;18.860;2023-07-22T07:37:58;97917.38;;;25.90;47.08
62057;BME280;48016;50.284;18.860;2023-07-22T07:40:24;97926.17;;;25.95;46.92
62057;BME280;48016;50.284;18.860;2023-07-22T07:42:52;97932.81;;;26.07;47.39
62057;BME280;48016;50.284;18.860;2023-07-22T07:45:19;97936.64;;;26.01;46.83
62057;BME280;48016;50.284;18.860;2023-07-22T07:47:46;97937.65;;;26.03;46.60
62057;BME280;48016;50.284;18.860;2023-07-22T07:50:13;97934.10;;;25.96;46.53
62057;BME280;48016;50.284;18.860;2023-07-22T07:52:39;97942.98;;;25.88;45.58
62057;BME280;48016;50.284;18.860;2023-07-22T07:55:06;97944.89;;;25.89;46.03
62057;BME280;48016;50.284;18.860;2023-07-22T07:57:33;97944.46;;;25.91;46.10
62057;BME280;48016;50.284;18.860;2023-07-22T07:59:59;97943.43;;;25.84;45.93
62057;BME280;48016;50.284;18.860;2023-07-22T08:02:26;97938.77;;;25.88;45.82
62057;BME280;48016;50.284;18.860;2023-07-22T08:04:52;97939.64;;;25.87;45.53
62057;BME280;48016;50.284;18.860;2023-07-22T08:07:19;97943.69;;;25.78;45.34
62057;BME280;48016;50.284;18.860;2023-07-22T08:09:48;97949.58;;;25.62;45.99
62057;BME280;48016;50.284;18.860;2023-07-22T08:12:16;97958.91;;;25.43;46.32
62057;BME280;48016;50.284;18.860;2023-07-22T08:14:43;97959.80;;;25.47;46.07
62057;BME280;48016;50.284;18.860;2023-07-22T08:17:10;97962.52;;;25.38;46.14
62057;BME280;48016;50.284;18.860;2023-07-22T08:19:36;97961.61;;;25.30;46.34
62057;BME280;48016;50.284;18.860;2023-07-22T08:22:03;97962.63;;;25.22;45.87
62057;BME280;48016;50.284;18.860;2023-07-22T08:24:30;97964.95;;;25.17;46.04
62057;BME280;48016;50.284;18.860;2023-07-22T08:26:56;97966.58;;;25.10;46.31
62057;BME280;48016;50.284;18.860;2023-07-22T08:29:23;97969.09;;;25.18;46.33
62057;BME280;48016;50.284;18.860;2023-07-22T08:31:50;97970.27;;;25.24;45.95
62057;BME280;48016;50.284;18.860;2023-07-22T08:34:16;97979.39;;;25.36;46.30
62057;BME280;48016;50.284;18.860;2023-07-22T08:36:43;97983.23;;;25.60;46.27
62057;BME280;48016;50.284;18.860;2023-07-22T08:39:10;97979.55;;;25.76;45.46
62057;BME280;48016;50.284;18.860;2023-07-22T08:41:37;97973.27;;;25.92;45.20
62057;BME280;48016;50.284;18.860;2023-07-22T08:44:05;97969.88;;;26.08;45.15
62057;BME280;48016;50.284;18.860;2023-07-22T08:46:35;97970.02;;;26.20;44.95
62057;BME280;48016;50.284;18.860;2023-07-22T08:49:04;97972.17;;;26.13;44.70
62057;BME280;48016;50.284;18.860;2023-07-22T08:51:32;97975.38;;;25.95;44.63
62057;BME280;48016;50.284;18.860;2023-07-22T08:54:00;97979.23;;;25.86;44.54
62057;BME280;48016;50.284;18.860;2023-07-22T08:56:27;97981.17;;;25.87;44.72
62057;BME280;48016;50.284;18.860;2023-07-22T08:58:55;97985.17;;;25.80;44.89
62057;BME280;48016;50.284;18.860;2023-07-22T09:01:22;97991.70;;;25.74;44.72
62057;BME280;48016;50.284;18.860;2023-07-22T09:03:49;97993.21;;;25.85;45.14
62057;BME280;48016;50.284;18.860;2023-07-22T09:06:19;97992.55;;;25.98;44.16
62057;BME280;48016;50.284;18.860;2023-07-22T09:08:46;97995.55;;;25.87;43.74
62057;BME280;48016;50.284;18.860;2023-07-22T09:11:14;97997.91;;;25.73;44.05
62057;BME280;48016;50.284;18.860;2023-07-22T09:13:44;97999.11;;;25.55;44.00
62057;BME280;48016;50.284;18.860;2023-07-22T09:16:11;98002.41;;;25.55;44.85
62057;BME280;48016;50.284;18.860;2023-07-22T09:18:39;98002.85;;;25.71;45.37
62057;BME280;48016;50.284;18.860;2023-07-22T09:21:05;97995.56;;;25.87;44.97
62057;BME280;48016;50.284;18.860;2023-07-22T09:23:33;97994.88;;;26.00;44.60
62057;BME280;48016;50.284;18.860;2023-07-22T09:26:14;97995.82;;;26.00;44.55
62057;BME280;48016;50.284;18.860;2023-07-22T09:28:49;98001.27;;;25.88;43.69
62057;BME280;48016;50.284;18.860;2023-07-22T09:31:16;98003.61;;;25.76;43.56
62057;BME280;48016;50.284;18.860;2023-07-22T09:33:43;98002.98;;;25.73;44.11
62057;BME280;48016;50.284;18.860;2023-07-22T09:36:10;98001.92;;;25.57;44.24
62057;BME280;48016;50.284;18.860;2023-07-22T09:38:40;98005.52;;;25.38;44.09
62057;BME280;48016;50.284;18.860;2023-07-22T09:41:06;98006.54;;;25.28;44.73
62057;BME280;48016;50.284;18.860;2023-07-22T09:43:38;98003.77;;;25.18;45.24
62057;BME280;48016;50.284;18.860;2023-07-22T09:46:06;98006.06;;;25.09;45.03
62057;BME280;48016;50.284;18.860;2023-07-22T09:48:41;98005.19;;;25.02;44.46
62057;BME280;48016;50.284;18.860;2023-07-22T09:51:14;98004.64;;;25.06;44.48
62057;BME280;48016;50.284;18.860;2023-07-22T09:54:00;98001.33;;;25.12;44.88
62057;BME280;48016;50.284;18.860;2023-07-22T09:56:27;98000.35;;;25.04;44.31
62057;BME280;48016;50.284;18.860;2023-07-22T09:58:54;97999.98;;;25.06;44.26
62057;BME280;48016;50.284;18.860;2023-07-22T10:01:23;97996.46;;;25.23;44.10
62057;BME280;48016;50.284;18.860;2023-07-22T10:03:55;97996.48;;;25.44;42.94
62057;BME280;48016;50.284;18.860;2023-07-22T10:06:28;97996.55;;;25.57;41.82
62057;BME280;48016;50.284;18.860;2023-07-22T10:08:56;97994.06;;;25.74;42.42
62057;BME280;48016;50.284;18.860;2023-07-22T10:11:25;97984.45;;;25.89;42.61
62057;BME280;48016;50.284;18.860;2023-07-22T10:13:53;97987.66;;;26.04;42.34
62057;BME280;48016;50.284;18.860;2023-07-22T10:16:19;97992.36;;;26.09;41.75
62057;BME280;48016;50.284;18.860;2023-07-22T10:18:48;97999.67;;;26.03;41.56
62057;BME280;48016;50.284;18.860;2023-07-22T10:21:15;97999.15;;;25.97;41.90
62057;BME280;48016;50.284;18.860;2023-07-22T10:23:44;98003.09;;;26.03;42.23
62057;BME280;48016;50.284;18.860;2023-07-22T10:26:12;98010.48;;;25.97;42.18
62057;BME280;48016;50.284;18.860;2023-07-22T10:28:40;98011.81;;;25.92;41.39
62057;BME280;48016;50.284;18.860;2023-07-22T10:31:08;98009.83;;;26.03;41.21
62057;BME280;48016;50.284;18.860;2023-07-22T10:33:35;98007.23;;;26.16;41.52
62057;BME280;48016;50.284;18.860;2023-07-22T10:36:07;98004.65;;;26.30;41.36
62057;BME280;48016;50.284;18.860;2023-07-22T10:38:35;97999.41;;;26.48;41.67
62057;BME280;48016;50.284;18.860;2023-07-22T10:41:12;98001.73;;;26.67;41.25
62057;BME280;48016;50.284;18.860;2023-07-22T10:43:39;97998.55;;;26.76;40.39
62057;BME280;48016;50.284;18.860;2023-07-22T10:46:09;98000.11;;;26.74;40.13
62057;BME280;48016;50.284;18.860;2023-07-22T10:48:38;98003.30;;;26.66;40.08
62057;BME280;48016;50.284;18.860;2023-07-22T10:51:10;98006.29;;;26.65;39.98
62057;BME280;48016;50.284;18.860;2023-07-22T10:53:46;98013.04;;;26.50;39.04
62057;BME280;48016;50.284;18.860;2023-07-22T10:56:19;98005.20;;;26.37;38.78
62057;BME280;48016;50.284;18.860;2023-07-22T11:14:28;98012.34;;;26.18;39.30
62057;BME280;48016;50.284;18.860;2023-07-22T11:17:01;98015.62;;;26.12;39.33
62057;BME280;48016;50.284;18.860;2023-07-22T11:19:31;98011.70;;;26.02;38.77
62057;BME280;48016;50.284;18.860;2023-07-22T11:21:59;98008.34;;;26.04;38.07
62057;BME280;48016;50.284;18.860;2023-07-22T11:24:25;98012.83;;;26.03;38.20
62057;BME280;48016;50.284;18.860;2023-07-22T11:26:53;98021.05;;;26.02;38.85
62057;BME280;48016;50.284;18.860;2023-07-22T11:29:20;98019.49;;;26.00;38.59
62057;BME280;48016;50.284;18.860;2023-07-22T11:31:48;98022.76;;;25.98;38.53
62057;BME280;48016;50.284;18.860;2023-07-22T11:34:16;98025.08;;;25.91;38.66
62057;BME280;48016;50.284;18.860;2023-07-22T11:36:44;98018.11;;;25.84;38.60
62057;BME280;48016;50.284;18.860;2023-07-22T11:39:12;98023.42;;;25.71;39.05
62057;BME280;48016;50.284;18.860;2023-07-22T11:41:43;98023.54;;;25.62;39.14
62057;BME280;48016;50.284;18.860;2023-07-22T11:44:15;98023.78;;;25.58;39.27
62057;BME280;48016;50.284;18.860;2023-07-22T11:46:58;98020.33;;;25.56;39.18
62057;BME280;48016;50.284;18.860;2023-07-22T11:49:31;98016.25;;;25.58;38.72
62057;BME280;48016;50.284;18.860;2023-07-22T11:52:08;98016.70;;;25.64;39.03
62057;BME280;48016;50.284;18.860;2023-07-22T11:54:39;98015.13;;;25.64;39.11
62057;BME280;48016;50.284;18.860;2023-07-22T11:57:16;98015.95;;;25.66;38.89
62057;BME280;48016;50.284;18.860;2023-07-22T11:59:48;98010.52;;;25.67;38.81
62057;BME280;48016;50.284;18.860;2023-07-22T12:02:19;98007.58;;;25.69;38.57
62057;BME280;48016;50.284;18.860;2023-07-22T12:07:30;98012.66;;;25.75;39.60
62057;BME280;48016;50.284;18.860;2023-07-22T12:09:59;98011.69;;;25.74;39.55
62057;BME280;48016;50.284;18.860;2023-07-22T12:12:41;98012.50;;;25.67;39.80
62057;BME280;48016;50.284;18.860;2023-07-22T12:15:21;98006.40;;;25.56;39.58
62057;BME280;48016;50.284;18.860;2023-07-22T12:17:58;98006.77;;;25.44;39.33
62057;BME280;48016;50.284;18.860;2023-07-22T12:20:32;98001.98;;;25.39;39.43
62057;BME280;48016;50.284;18.860;2023-07-22T12:22:59;97999.47;;;25.40;40.33
62057;BME280;48016;50.284;18.860;2023-07-22T12:25:26;97992.86;;;25.41;40.72
62057;BME280;48016;50.284;18.860;2023-07-22T12:27:53;97989.39;;;25.44;40.57
62057;BME280;48016;50.284;18.860;2023-07-22T12:30:20;97992.08;;;25.59;41.02
62057;BME280;48016;50.284;18.860;2023-07-22T12:32:47;97991.20;;;25.77;40.72
62057;BME280;48016;50.284;18.860;2023-07-22T12:35:14;97992.96;;;25.78;40.33
62057;BME280;48016;50.284;18.860;2023-07-22T12:37:40;97990.88;;;25.83;40.29
62057;BME280;48016;50.284;18.860;2023-07-22T12:40:07;97987.31;;;25.90;40.29
62057;BME280;48016;50.284;18.860;2023-07-22T12:42:35;97986.30;;;25.96;40.01
62057;BME280;48016;50.284;18.860;2023-07-22T12:45:03;97987.84;;;26.01;39.60
62057;BME280;48016;50.284;18.860;2023-07-22T12:47:30;97987.59;;;26.03;38.98
62057;BME280;48016;50.284;18.860;2023-07-22T12:49:56;97980.06;;;26.07;39.03
62057;BME280;48016;50.284;18.860;2023-07-22T12:52:23;97980.55;;;26.08;38.25
62057;BME280;48016;50.284;18.860;2023-07-22T12:54:49;97980.60;;;26.06;37.60
62057;BME280;48016;50.284;18.860;2023-07-22T12:57:16;97980.06;;;26.03;37.53
62057;BME280;48016;50.284;18.860;2023-07-22T12:59:42;97983.34;;;25.97;37.51
62057;BME280;48016;50.284;18.860;2023-07-22T13:02:09;97986.27;;;25.86;37.43
62057;BME280;48016;50.284;18.860;2023-07-22T13:04:35;97986.17;;;25.67;37.03
62057;BME280;48016;50.284;18.860;2023-07-22T13:07:02;97988.78;;;25.50;37.09
62057;BME280;48016;50.284;18.860;2023-07-22T13:09:29;97991.02;;;25.33;37.14
62057;BME280;48016;50.284;18.860;2023-07-22T13:11:56;97989.03;;;25.16;37.10